createdAt,value
2022-10-28T15:51:19.257Z,18.95
2022-10-28T15:59:09.061Z,18.72
2022-10-28T16:06:44.119Z,18.50
2022-10-28T16:14:35.092Z,18.31
2022-10-28T16:22:13.699Z,18.10
2022-10-28T16:29:47.373Z,17.90
2022-10-28T16:37:24.188Z,17.70
2022-10-28T16:44:57.944Z,17.51
2022-10-28T16:52:33.626Z,17.29
2022-10-28T17:00:10.104Z,17.13
2022-10-28T17:07:45.082Z,16.95
2022-10-28T17:15:18.766Z,16.80
2022-10-28T17:22:54.113Z,16.68
2022-10-28T17:30:28.077Z,16.55
2022-10-28T17:38:03.165Z,16.40
2022-10-28T17:45:36.669Z,16.27
2022-10-28T17:53:13.094Z,16.16
2022-10-28T18:00:46.701Z,16.07
2022-10-28T18:08:22.158Z,15.92
2022-10-28T18:15:56.004Z,15.77
2022-10-28T18:23:31.246Z,15.63
2022-10-28T18:31:06.765Z,15.58
2022-10-28T18:38:41.981Z,15.51
2022-10-28T18:46:15.777Z,15.42
2022-10-28T18:53:51.558Z,15.32
2022-10-28T19:01:30.211Z,15.23
2022-10-28T19:09:06.017Z,15.17
2022-10-28T19:16:39.987Z,15.11
2022-10-28T19:24:16.512Z,15.10
2022-10-28T19:31:50.192Z,15.04
2022-10-28T19:39:25.409Z,15.02
2022-10-28T19:46:59.149Z,15.05
2022-10-28T19:54:34.751Z,15.03
2022-10-28T20:02:08.955Z,14.96
2022-10-28T20:09:43.969Z,14.90
2022-10-28T20:17:17.636Z,14.79
2022-10-28T20:24:52.634Z,14.73
2022-10-28T20:32:26.179Z,14.61
2022-10-28T20:40:06.196Z,14.58
2022-10-28T20:47:41.145Z,14.51
2022-10-28T20:55:16.179Z,14.41
2022-10-28T21:02:49.925Z,14.34
2022-10-28T21:10:25.124Z,14.30
2022-10-28T21:17:58.521Z,14.16
2022-10-28T21:25:33.906Z,14.07
2022-10-28T21:33:07.616Z,13.97
2022-10-28T21:40:42.613Z,13.96
2022-10-28T21:48:16.404Z,13.95
2022-10-28T21:55:54.897Z,14.00
2022-10-28T22:03:29.392Z,14.02
2022-10-28T22:11:06.164Z,14.04
2022-10-28T22:18:40.484Z,14.08
2022-10-28T22:26:17.966Z,14.08
2022-10-28T22:33:52.391Z,14.05
2022-10-28T22:41:29.000Z,14.04
2022-10-28T22:49:02.911Z,14.03
2022-10-28T22:56:39.669Z,13.99
2022-10-28T23:04:13.365Z,13.95
2022-10-28T23:11:48.714Z,13.92
2022-10-28T23:19:22.359Z,13.88
2022-10-28T23:34:32.127Z,13.71
2022-10-28T23:42:07.291Z,13.65
2022-10-28T23:49:40.886Z,13.61
2022-10-28T23:57:16.454Z,13.56
